sensor_id;sensor_type;location;lat;lon;timestamp;P1;durP1;ratioP1;P2;durP2;ratioP2
65073;SDS011;52218;51.224;-2.328;2023-02-15T00:01:31;18.95;;;12.60;;
65073;SDS011;52218;51.224;-2.328;2023-02-15T00:05:13;16.13;;;11.90;;
65073;SDS011;52218;51.224;-2.328;2023-02-15T00:08:55;21.75;;;12.63;;
65073;SDS011;52218;51.224;-2.328;2023-02-15T00:12:37;17.75;;;12.52;;
65073;SDS011;52218;51.224;-2.328;2023-02-15T00:16:19;17.35;;;12.60;;
65073;SDS011;52218;51.224;-2.328;2023-02-15T00:20:01;19.35;;;12.57;;
65073;SDS011;52218;51.224;-2.328;2023-02-15T00:23:43;15.73;;;12.13;;
65073;SDS011;52218;51.224;-2.328;2023-02-15T00:27:25;17.90;;;12.55;;
65073;SDS011;52218;51.224;-2.328;2023-02-15T00:31:08;16.45;;;11.98;;
65073;SDS011;52218;51.224;-2.328;2023-02-15T00:34:51;19.48;;;12.40;;
65073;SDS011;52218;51.224;-2.328;2023-02-15T00:38:33;18.48;;;12.60;;
65073;SDS011;52218;51.224;-2.328;2023-02-15T00:42:16;18.85;;;12.70;;
65073;SDS011;52218;51.224;-2.328;2023-02-15T00:45:58;17.85;;;11.90;;
65073;SDS011;52218;51.224;-2.328;2023-02-15T00:49:41;16.95;;;11.85;;
65073;SDS011;52218;51.224;-2.328;2023-02-15T00:53:23;16.55;;;12.80;;
65073;SDS011;52218;51.224;-2.328;2023-02-15T00:57:06;16.92;;;12.02;;
65073;SDS011;52218;51.224;-2.328;2023-02-15T01:00:48;18.42;;;12.32;;
65073;SDS011;52218;51.224;-2.328;2023-02-15T01:04:30;20.20;;;13.18;;
65073;SDS011;52218;51.224;-2.328;2023-02-15T01:08:12;18.58;;;11.93;;
65073;SDS011;52218;51.224;-2.328;2023-02-15T01:11:54;17.80;;;12.95;;
65073;SDS011;52218;51.224;-2.328;2023-02-15T01:15:36;19.23;;;12.68;;
65073;SDS011;52218;51.224;-2.328;2023-02-15T01:19:18;18.30;;;12.35;;
65073;SDS011;52218;51.224;-2.328;2023-02-15T01:23:00;18.92;;;12.40;;
65073;SDS011;52218;51.224;-2.328;2023-02-15T01:26:42;18.20;;;12.70;;
65073;SDS011;52218;51.224;-2.328;2023-02-15T01:30:24;17.10;;;12.38;;
65073;SDS011;52218;51.224;-2.328;2023-02-15T01:34:06;20.77;;;13.77;;
65073;SDS011;52218;51.224;-2.328;2023-02-15T01:37:48;21.63;;;13.55;;
65073;SDS011;52218;51.224;-2.328;2023-02-15T01:41:30;17.17;;;12.80;;
65073;SDS011;52218;51.224;-2.328;2023-02-15T01:45:19;19.63;;;13.43;;
65073;SDS011;52218;51.224;-2.328;2023-02-15T01:49:14;18.27;;;12.73;;
65073;SDS011;52218;51.224;-2.328;2023-02-15T01:53:01;19.83;;;13.73;;
65073;SDS011;52218;51.224;-2.328;2023-02-15T01:57:06;19.10;;;13.63;;
65073;SDS011;52218;51.224;-2.328;2023-02-15T02:00:59;17.10;;;12.27;;
65073;SDS011;52218;51.224;-2.328;2023-02-15T02:04:48;20.00;;;14.48;;
65073;SDS011;52218;51.224;-2.328;2023-02-15T02:08:34;21.15;;;13.73;;
65073;SDS011;52218;51.224;-2.328;2023-02-15T02:12:17;20.33;;;14.13;;
65073;SDS011;52218;51.224;-2.328;2023-02-15T02:16:01;21.05;;;13.77;;
65073;SDS011;52218;51.224;-2.328;2023-02-15T02:35:52;18.95;;;13.27;;
65073;SDS011;52218;51.224;-2.328;2023-02-15T02:44:07;21.75;;;13.35;;
65073;SDS011;52218;51.224;-2.328;2023-02-15T02:47:59;23.50;;;16.15;;
65073;SDS011;52218;51.224;-2.328;2023-02-15T02:52:03;20.67;;;14.82;;
65073;SDS011;52218;51.224;-2.328;2023-02-15T02:55:54;22.52;;;15.15;;
65073;SDS011;52218;51.224;-2.328;2023-02-15T02:59:44;23.67;;;14.95;;
65073;SDS011;52218;51.224;-2.328;2023-02-15T03:03:32;22.13;;;14.40;;
65073;SDS011;52218;51.224;-2.328;2023-02-15T03:07:19;20.80;;;13.80;;
65073;SDS011;52218;51.224;-2.328;2023-02-15T03:11:04;21.30;;;15.18;;
65073;SDS011;52218;51.224;-2.328;2023-02-15T03:14:48;21.48;;;14.70;;
65073;SDS011;52218;51.224;-2.328;2023-02-15T03:18:39;26.23;;;16.80;;
65073;SDS011;52218;51.224;-2.328;2023-02-15T03:22:39;23.63;;;16.33;;
65073;SDS011;52218;51.224;-2.328;2023-02-15T03:26:30;23.88;;;16.13;;
65073;SDS011;52218;51.224;-2.328;2023-02-15T03:30:14;24.23;;;16.60;;
65073;SDS011;52218;51.224;-2.328;2023-02-15T03:34:02;26.47;;;16.43;;
65073;SDS011;52218;51.224;-2.328;2023-02-15T03:38:05;21.50;;;14.50;;
65073;SDS011;52218;51.224;-2.328;2023-02-15T03:42:32;25.08;;;15.45;;
65073;SDS011;52218;51.224;-2.328;2023-02-15T03:54:30;20.60;;;14.60;;
65073;SDS011;52218;51.224;-2.328;2023-02-15T03:58:23;18.98;;;13.32;;
65073;SDS011;52218;51.224;-2.328;2023-02-15T04:02:24;20.55;;;13.57;;
65073;SDS011;52218;51.224;-2.328;2023-02-15T04:06:10;21.77;;;15.00;;
65073;SDS011;52218;51.224;-2.328;2023-02-15T04:09:52;20.30;;;14.20;;
65073;SDS011;52218;51.224;-2.328;2023-02-15T04:13:52;23.92;;;15.88;;
65073;SDS011;52218;51.224;-2.328;2023-02-15T04:17:37;20.83;;;14.32;;
65073;SDS011;52218;51.224;-2.328;2023-02-15T04:21:20;26.05;;;17.42;;
65073;SDS011;52218;51.224;-2.328;2023-02-15T04:25:22;26.83;;;17.17;;
65073;SDS011;52218;51.224;-2.328;2023-02-15T04:29:04;21.05;;;14.70;;
65073;SDS011;52218;51.224;-2.328;2023-02-15T04:32:46;19.83;;;13.73;;
65073;SDS011;52218;51.224;-2.328;2023-02-15T04:36:28;21.17;;;13.52;;
65073;SDS011;52218;51.224;-2.328;2023-02-15T04:40:11;20.38;;;13.98;;
65073;SDS011;52218;51.224;-2.328;2023-02-15T04:43:55;21.05;;;13.52;;
65073;SDS011;52218;51.224;-2.328;2023-02-15T04:47:37;21.02;;;13.57;;
65073;SDS011;52218;51.224;-2.328;2023-02-15T04:51:19;20.25;;;13.48;;
65073;SDS011;52218;51.224;-2.328;2023-02-15T04:55:02;19.83;;;13.80;;
65073;SDS011;52218;51.224;-2.328;2023-02-15T04:58:44;23.38;;;14.05;;
65073;SDS011;52218;51.224;-2.328;2023-02-15T05:02:26;20.67;;;13.52;;
65073;SDS011;52218;51.224;-2.328;2023-02-15T05:06:08;20.88;;;14.65;;
65073;SDS011;52218;51.224;-2.328;2023-02-15T05:09:50;23.70;;;14.85;;
65073;SDS011;52218;51.224;-2.328;2023-02-15T05:13:32;24.50;;;16.80;;
65073;SDS011;52218;51.224;-2.328;2023-02-15T05:17:14;24.83;;;16.90;;
65073;SDS011;52218;51.224;-2.328;2023-02-15T05:20:56;24.95;;;17.58;;
65073;SDS011;52218;51.224;-2.328;2023-02-15T05:24:38;26.08;;;18.20;;
65073;SDS011;52218;51.224;-2.328;2023-02-15T05:28:39;25.98;;;18.58;;
65073;SDS011;52218;51.224;-2.328;2023-02-15T05:32:21;27.55;;;18.13;;
65073;SDS011;52218;51.224;-2.328;2023-02-15T05:36:03;27.38;;;17.15;;
65073;SDS011;52218;51.224;-2.328;2023-02-15T05:39:46;25.63;;;16.88;;
65073;SDS011;52218;51.224;-2.328;2023-02-15T05:43:28;25.55;;;17.05;;
65073;SDS011;52218;51.224;-2.328;2023-02-15T05:47:10;25.90;;;17.20;;
65073;SDS011;52218;51.224;-2.328;2023-02-15T05:51:06;25.40;;;17.33;;
65073;SDS011;52218;51.224;-2.328;2023-02-15T05:54:50;26.00;;;17.67;;
65073;SDS011;52218;51.224;-2.328;2023-02-15T05:58:33;28.00;;;19.15;;
65073;SDS011;52218;51.224;-2.328;2023-02-15T06:02:21;28.27;;;18.02;;
65073;SDS011;52218;51.224;-2.328;2023-02-15T06:06:03;27.83;;;17.65;;
65073;SDS011;52218;51.224;-2.328;2023-02-15T06:09:45;26.50;;;17.88;;
65073;SDS011;52218;51.224;-2.328;2023-02-15T06:13:27;28.23;;;17.27;;
65073;SDS011;52218;51.224;-2.328;2023-02-15T06:17:09;26.80;;;17.08;;
65073;SDS011;52218;51.224;-2.328;2023-02-15T06:20:52;24.58;;;16.38;;
65073;SDS011;52218;51.224;-2.328;2023-02-15T06:24:34;25.30;;;16.35;;
65073;SDS011;52218;51.224;-2.328;2023-02-15T06:28:16;25.77;;;16.98;;
65073;SDS011;52218;51.224;-2.328;2023-02-15T06:31:58;25.23;;;17.40;;
65073;SDS011;52218;51.224;-2.328;2023-02-15T06:35:40;26.90;;;17.80;;
65073;SDS011;52218;51.224;-2.328;2023-02-15T06:39:22;28.25;;;19.05;;
65073;SDS011;52218;51.224;-2.328;2023-02-15T06:43:04;30.70;;;18.42;;
65073;SDS011;52218;51.224;-2.328;2023-02-15T06:46:46;29.98;;;18.33;;
65073;SDS011;52218;51.224;-2.328;2023-02-15T06:50:28;26.42;;;17.42;;
65073;SDS011;52218;51.224;-2.328;2023-02-15T06:54:10;25.90;;;17.58;;
65073;SDS011;52218;51.224;-2.328;2023-02-15T06:57:52;28.45;;;17.95;;
65073;SDS011;52218;51.224;-2.328;2023-02-15T07:01:34;28.85;;;17.30;;
65073;SDS011;52218;51.224;-2.328;2023-02-15T07:05:18;22.70;;;15.60;;
65073;SDS011;52218;51.224;-2.328;2023-02-15T07:09:00;28.38;;;15.25;;
65073;SDS011;52218;51.224;-2.328;2023-02-15T07:12:42;22.13;;;14.73;;
65073;SDS011;52218;51.224;-2.328;2023-02-15T07:16:25;24.58;;;15.57;;
65073;SDS011;52218;51.224;-2.328;2023-02-15T07:20:09;23.00;;;14.63;;
65073;SDS011;52218;51.224;-2.328;2023-02-15T07:23:55;26.83;;;15.32;;
65073;SDS011;52218;51.224;-2.328;2023-02-15T07:27:38;26.60;;;14.07;;
65073;SDS011;52218;51.224;-2.328;2023-02-15T07:31:21;25.88;;;15.70;;
65073;SDS011;52218;51.224;-2.328;2023-02-15T07:35:03;25.08;;;16.70;;
65073;SDS011;52218;51.224;-2.328;2023-02-15T07:38:45;26.45;;;15.77;;
65073;SDS011;52218;51.224;-2.328;2023-02-15T07:42:30;26.33;;;17.02;;
65073;SDS011;52218;51.224;-2.328;2023-02-15T07:46:13;26.95;;;16.00;;
65073;SDS011;52218;51.224;-2.328;2023-02-15T07:49:56;33.35;;;16.75;;
65073;SDS011;52218;51.224;-2.328;2023-02-15T07:53:38;26.65;;;17.08;;
65073;SDS011;52218;51.224;-2.328;2023-02-15T07:57:21;27.65;;;16.60;;
65073;SDS011;52218;51.224;-2.328;2023-02-15T08:01:03;24.42;;;16.60;;
65073;SDS011;52218;51.224;-2.328;2023-02-15T08:04:46;24.70;;;16.65;;
65073;SDS011;52218;51.224;-2.328;2023-02-15T08:08:28;25.45;;;16.73;;
65073;SDS011;52218;51.224;-2.328;2023-02-15T08:12:13;27.38;;;16.60;;
65073;SDS011;52218;51.224;-2.328;2023-02-15T08:15:55;28.02;;;16.75;;
65073;SDS011;52218;51.224;-2.328;2023-02-15T08:19:37;24.45;;;16.83;;
65073;SDS011;52218;51.224;-2.328;2023-02-15T08:23:19;26.55;;;17.50;;
65073;SDS011;52218;51.224;-2.328;2023-02-15T08:27:01;27.92;;;16.95;;
65073;SDS011;52218;51.224;-2.328;2023-02-15T08:30:46;26.30;;;16.13;;
65073;SDS011;52218;51.224;-2.328;2023-02-15T08:34:29;25.35;;;16.45;;
65073;SDS011;52218;51.224;-2.328;2023-02-15T08:38:13;26.38;;;15.98;;
65073;SDS011;52218;51.224;-2.328;2023-02-15T08:41:55;23.63;;;16.00;;
65073;SDS011;52218;51.224;-2.328;2023-02-15T08:45:37;26.77;;;16.45;;
65073;SDS011;52218;51.224;-2.328;2023-02-15T08:49:20;24.15;;;15.45;;
65073;SDS011;52218;51.224;-2.328;2023-02-15T08:53:03;20.65;;;14.73;;
65073;SDS011;52218;51.224;-2.328;2023-02-15T08:56:45;16.30;;;13.40;;
65073;SDS011;52218;51.224;-2.328;2023-02-15T09:00:27;20.27;;;13.00;;
65073;SDS011;52218;51.224;-2.328;2023-02-15T09:04:10;20.27;;;12.82;;
65073;SDS011;52218;51.224;-2.328;2023-02-15T09:07:53;19.02;;;12.57;;
65073;SDS011;52218;51.224;-2.328;2023-02-15T09:11:39;22.20;;;12.30;;
65073;SDS011;52218;51.224;-2.328;2023-02-15T09:15:23;17.52;;;11.32;;
65073;SDS011;52218;51.224;-2.328;2023-02-15T09:19:05;14.77;;;10.85;;
65073;SDS011;52218;51.224;-2.328;2023-02-15T09:22:48;14.88;;;9.88;;
65073;SDS011;52218;51.224;-2.328;2023-02-15T09:26:37;13.80;;;9.85;;
65073;SDS011;52218;51.224;-2.328;2023-02-15T09:30:23;12.73;;;9.07;;
65073;SDS011;52218;51.224;-2.328;2023-02-15T09:34:06;12.82;;;8.15;;
65073;SDS011;52218;51.224;-2.328;2023-02-15T09:37:48;11.55;;;7.97;;
65073;SDS011;52218;51.224;-2.328;2023-02-15T09:57:08;9.20;;;5.93;;
65073;SDS011;52218;51.224;-2.328;2023-02-15T10:05:19;10.02;;;5.63;;
65073;SDS011;52218;51.224;-2.328;2023-02-15T10:13:17;11.10;;;6.28;;
65073;SDS011;52218;51.224;-2.328;2023-02-15T10:17:16;8.63;;;5.50;;
65073;SDS011;52218;51.224;-2.328;2023-02-15T10:21:56;14.68;;;5.93;;
65073;SDS011;52218;51.224;-2.328;2023-02-15T10:41:43;9.20;;;5.68;;
65073;SDS011;52218;51.224;-2.328;2023-02-15T10:45:45;8.02;;;5.68;;
65073;SDS011;52218;51.224;-2.328;2023-02-15T11:01:37;8.85;;;4.10;;
65073;SDS011;52218;51.224;-2.328;2023-02-15T11:10:11;7.13;;;3.95;;
65073;SDS011;52218;51.224;-2.328;2023-02-15T11:14:04;6.05;;;3.70;;
65073;SDS011;52218;51.224;-2.328;2023-02-15T11:17:58;12.55;;;6.18;;
65073;SDS011;52218;51.224;-2.328;2023-02-15T11:22:02;7.05;;;4.30;;
65073;SDS011;52218;51.224;-2.328;2023-02-15T11:26:08;9.02;;;5.05;;
65073;SDS011;52218;51.224;-2.328;2023-02-15T11:33:41;7.13;;;3.80;;
65073;SDS011;52218;51.224;-2.328;2023-02-15T11:37:33;7.68;;;3.88;;
65073;SDS011;52218;51.224;-2.328;2023-02-15T11:41:28;8.35;;;3.97;;
65073;SDS011;52218;51.224;-2.328;2023-02-15T11:49:20;6.63;;;3.70;;
65073;SDS011;52218;51.224;-2.328;2023-02-15T11:53:16;7.68;;;3.67;;
65073;SDS011;52218;51.224;-2.328;2023-02-15T11:57:10;9.03;;;3.40;;
65073;SDS011;52218;51.224;-2.328;2023-02-15T12:01:01;6.85;;;2.92;;
65073;SDS011;52218;51.224;-2.328;2023-02-15T12:04:52;8.10;;;3.30;;
65073;SDS011;52218;51.224;-2.328;2023-02-15T12:08:55;7.60;;;3.38;;
65073;SDS011;52218;51.224;-2.328;2023-02-15T12:16:54;8.20;;;3.72;;
65073;SDS011;52218;51.224;-2.328;2023-02-15T12:20:37;7.18;;;3.65;;
65073;SDS011;52218;51.224;-2.328;2023-02-15T12:24:27;7.72;;;3.38;;
65073;SDS011;52218;51.224;-2.328;2023-02-15T12:28:25;7.68;;;4.00;;
65073;SDS011;52218;51.224;-2.328;2023-02-15T12:32:26;9.38;;;4.03;;
65073;SDS011;52218;51.224;-2.328;2023-02-15T12:44:15;6.50;;;3.95;;
65073;SDS011;52218;51.224;-2.328;2023-02-15T12:52:03;7.85;;;3.63;;
65073;SDS011;52218;51.224;-2.328;2023-02-15T12:55:51;8.07;;;3.80;;
65073;SDS011;52218;51.224;-2.328;2023-02-15T12:59:35;6.72;;;4.00;;
65073;SDS011;52218;51.224;-2.328;2023-02-15T13:03:20;7.47;;;3.67;;
65073;SDS011;52218;51.224;-2.328;2023-02-15T13:07:03;6.43;;;3.22;;
65073;SDS011;52218;51.224;-2.328;2023-02-15T13:14:52;7.18;;;3.50;;
65073;SDS011;52218;51.224;-2.328;2023-02-15T13:18:45;6.72;;;3.65;;
65073;SDS011;52218;51.224;-2.328;2023-02-15T13:22:43;7.35;;;3.17;;
65073;SDS011;52218;51.224;-2.328;2023-02-15T13:26:30;8.75;;;3.42;;
65073;SDS011;52218;51.224;-2.328;2023-02-15T13:30:33;9.18;;;3.42;;
65073;SDS011;52218;51.224;-2.328;2023-02-15T13:34:23;8.15;;;3.50;;
65073;SDS011;52218;51.224;-2.328;2023-02-15T13:38:24;7.97;;;3.42;;
65073;SDS011;52218;51.224;-2.328;2023-02-15T13:42:20;7.18;;;3.60;;
65073;SDS011;52218;51.224;-2.328;2023-02-15T14:06:58;6.35;;;3.13;;
65073;SDS011;52218;51.224;-2.328;2023-02-15T14:10:54;6.30;;;3.17;;
65073;SDS011;52218;51.224;-2.328;2023-02-15T14:18:51;6.50;;;2.90;;
65073;SDS011;52218;51.224;-2.328;2023-02-15T14:22:53;6.45;;;3.22;;
65073;SDS011;52218;51.224;-2.328;2023-02-15T14:31:11;8.13;;;3.28;;
65073;SDS011;52218;51.224;-2.328;2023-02-15T14:34:56;10.70;;;3.30;;
65073;SDS011;52218;51.224;-2.328;2023-02-15T14:47:36;8.93;;;2.80;;
65073;SDS011;52218;51.224;-2.328;2023-02-15T14:52:06;8.80;;;3.00;;
65073;SDS011;52218;51.224;-2.328;2023-02-15T14:55:35;7.60;;;3.22;;
65073;SDS011;52218;51.224;-2.328;2023-02-15T14:59:18;7.80;;;3.15;;
65073;SDS011;52218;51.224;-2.328;2023-02-15T15:03:02;9.57;;;3.33;;
65073;SDS011;52218;51.224;-2.328;2023-02-15T15:19:09;11.20;;;3.40;;
65073;SDS011;52218;51.224;-2.328;2023-02-15T15:48:22;10.38;;;3.55;;
65073;SDS011;52218;51.224;-2.328;2023-02-15T15:52:20;11.07;;;3.83;;
65073;SDS011;52218;51.224;-2.328;2023-02-15T15:56:07;12.10;;;4.30;;
65073;SDS011;52218;51.224;-2.328;2023-02-15T15:59:53;12.20;;;4.45;;
65073;SDS011;52218;51.224;-2.328;2023-02-15T16:03:36;13.60;;;4.03;;
65073;SDS011;52218;51.224;-2.328;2023-02-15T16:11:07;3.35;;;1.05;;
65073;SDS011;52218;51.224;-2.328;2023-02-15T16:14:57;1.35;;;0.50;;
65073;SDS011;52218;51.224;-2.328;2023-02-15T16:18:46;1.05;;;0.50;;
65073;SDS011;52218;51.224;-2.328;2023-02-15T16:22:29;1.33;;;0.47;;
65073;SDS011;52218;51.224;-2.328;2023-02-15T16:30:32;0.90;;;0.50;;
65073;SDS011;52218;51.224;-2.328;2023-02-15T16:34:16;0.52;;;0.40;;
65073;SDS011;52218;51.224;-2.328;2023-02-15T16:37:59;1.80;;;1.30;;
65073;SDS011;52218;51.224;-2.328;2023-02-15T16:41:41;1.50;;;0.88;;
65073;SDS011;52218;51.224;-2.328;2023-02-15T16:45:27;2.30;;;0.60;;
65073;SDS011;52218;51.224;-2.328;2023-02-15T16:49:15;1.63;;;0.57;;
65073;SDS011;52218;51.224;-2.328;2023-02-15T16:53:01;1.85;;;0.45;;
65073;SDS011;52218;51.224;-2.328;2023-02-15T16:56:44;2.25;;;0.40;;
65073;SDS011;52218;51.224;-2.328;2023-02-15T17:00:28;0.60;;;0.40;;
65073;SDS011;52218;51.224;-2.328;2023-02-15T17:08:12;1.30;;;0.50;;
65073;SDS011;52218;51.224;-2.328;2023-02-15T17:11:55;1.65;;;0.88;;
65073;SDS011;52218;51.224;-2.328;2023-02-15T17:15:40;1.67;;;0.57;;
65073;SDS011;52218;51.224;-2.328;2023-02-15T17:19:52;0.80;;;0.50;;
65073;SDS011;52218;51.224;-2.328;2023-02-15T17:23:40;1.05;;;0.60;;
65073;SDS011;52218;51.224;-2.328;2023-02-15T17:27:25;1.38;;;0.75;;
65073;SDS011;52218;51.224;-2.328;2023-02-15T17:31:12;1.83;;;0.93;;
65073;SDS011;52218;51.224;-2.328;2023-02-15T17:42:40;2.67;;;1.33;;
65073;SDS011;52218;51.224;-2.328;2023-02-15T17:46:22;2.20;;;1.20;;
65073;SDS011;52218;51.224;-2.328;2023-02-15T17:50:06;1.98;;;1.02;;
65073;SDS011;52218;51.224;-2.328;2023-02-15T17:53:49;1.60;;;1.20;;
65073;SDS011;52218;51.224;-2.328;2023-02-15T17:57:50;2.33;;;1.42;;
65073;SDS011;52218;51.224;-2.328;2023-02-15T18:01:32;3.03;;;1.45;;
65073;SDS011;52218;51.224;-2.328;2023-02-15T18:05:34;9.63;;;4.72;;
65073;SDS011;52218;51.224;-2.328;2023-02-15T18:09:35;3.53;;;1.92;;
65073;SDS011;52218;51.224;-2.328;2023-02-15T18:13:36;5.72;;;3.00;;
65073;SDS011;52218;51.224;-2.328;2023-02-15T18:17:18;3.45;;;2.22;;
65073;SDS011;52218;51.224;-2.328;2023-02-15T18:21:02;3.80;;;2.00;;
65073;SDS011;52218;51.224;-2.328;2023-02-15T18:24:46;4.78;;;1.77;;
65073;SDS011;52218;51.224;-2.328;2023-02-15T18:28:29;4.63;;;1.48;;
65073;SDS011;52218;51.224;-2.328;2023-02-15T18:32:16;3.00;;;1.33;;
65073;SDS011;52218;51.224;-2.328;2023-02-15T18:36:13;3.03;;;1.63;;
65073;SDS011;52218;51.224;-2.328;2023-02-15T18:40:00;1.75;;;1.10;;
65073;SDS011;52218;51.224;-2.328;2023-02-15T18:43:45;3.33;;;1.13;;
65073;SDS011;52218;51.224;-2.328;2023-02-15T18:47:29;2.22;;;0.90;;
65073;SDS011;52218;51.224;-2.328;2023-02-15T18:51:32;3.55;;;1.10;;
65073;SDS011;52218;51.224;-2.328;2023-02-15T18:55:26;5.22;;;1.20;;
65073;SDS011;52218;51.224;-2.328;2023-02-15T18:59:15;2.90;;;1.67;;
65073;SDS011;52218;51.224;-2.328;2023-02-15T19:02:58;3.85;;;1.90;;
65073;SDS011;52218;51.224;-2.328;2023-02-15T19:06:43;6.97;;;3.65;;
65073;SDS011;52218;51.224;-2.328;2023-02-15T19:10:27;4.70;;;2.03;;
65073;SDS011;52218;51.224;-2.328;2023-02-15T19:14:19;4.72;;;2.53;;
65073;SDS011;52218;51.224;-2.328;2023-02-15T19:18:05;5.38;;;2.20;;
65073;SDS011;52218;51.224;-2.328;2023-02-15T19:21:47;4.70;;;1.90;;
65073;SDS011;52218;51.224;-2.328;2023-02-15T19:25:30;5.72;;;2.33;;
65073;SDS011;52218;51.224;-2.328;2023-02-15T19:29:24;3.88;;;2.25;;
65073;SDS011;52218;51.224;-2.328;2023-02-15T19:33:11;3.75;;;2.20;;
65073;SDS011;52218;51.224;-2.328;2023-02-15T19:36:57;4.40;;;2.70;;
65073;SDS011;52218;51.224;-2.328;2023-02-15T19:40:39;7.72;;;4.45;;
65073;SDS011;52218;51.224;-2.328;2023-02-15T19:44:21;6.82;;;3.53;;
65073;SDS011;52218;51.224;-2.328;2023-02-15T19:48:04;8.30;;;3.30;;
65073;SDS011;52218;51.224;-2.328;2023-02-15T19:51:47;8.05;;;4.32;;
65073;SDS011;52218;51.224;-2.328;2023-02-15T19:55:32;8.38;;;4.97;;
65073;SDS011;52218;51.224;-2.328;2023-02-15T19:59:49;8.80;;;5.20;;
65073;SDS011;52218;51.224;-2.328;2023-02-15T20:03:23;6.97;;;4.63;;
65073;SDS011;52218;51.224;-2.328;2023-02-15T20:07:06;8.80;;;6.43;;
65073;SDS011;52218;51.224;-2.328;2023-02-15T20:11:08;6.93;;;4.50;;
65073;SDS011;52218;51.224;-2.328;2023-02-15T20:14:52;6.50;;;3.70;;
65073;SDS011;52218;51.224;-2.328;2023-02-15T20:18:34;5.10;;;3.70;;
65073;SDS011;52218;51.224;-2.328;2023-02-15T20:22:20;6.63;;;4.00;;
65073;SDS011;52218;51.224;-2.328;2023-02-15T20:26:16;5.13;;;3.95;;
65073;SDS011;52218;51.224;-2.328;2023-02-15T20:29:59;9.05;;;4.40;;
65073;SDS011;52218;51.224;-2.328;2023-02-15T20:33:44;7.05;;;4.97;;
65073;SDS011;52218;51.224;-2.328;2023-02-15T20:37:26;18.80;;;9.60;;
65073;SDS011;52218;51.224;-2.328;2023-02-15T20:41:15;15.13;;;8.45;;
65073;SDS011;52218;51.224;-2.328;2023-02-15T20:45:19;14.40;;;8.95;;
65073;SDS011;52218;51.224;-2.328;2023-02-15T20:49:10;13.88;;;8.40;;
65073;SDS011;52218;51.224;-2.328;2023-02-15T20:52:54;9.90;;;6.18;;
65073;SDS011;52218;51.224;-2.328;2023-02-15T20:56:37;10.77;;;6.10;;
65073;SDS011;52218;51.224;-2.328;2023-02-15T21:00:23;15.27;;;6.57;;
65073;SDS011;52218;51.224;-2.328;2023-02-15T21:04:11;43.13;;;8.13;;
65073;SDS011;52218;51.224;-2.328;2023-02-15T21:08:14;65.93;;;7.38;;
65073;SDS011;52218;51.224;-2.328;2023-02-15T21:11:58;42.90;;;6.93;;
65073;SDS011;52218;51.224;-2.328;2023-02-15T21:15:44;56.75;;;7.90;;
65073;SDS011;52218;51.224;-2.328;2023-02-15T21:19:26;53.33;;;8.82;;
65073;SDS011;52218;51.224;-2.328;2023-02-15T21:23:09;19.90;;;7.13;;
65073;SDS011;52218;51.224;-2.328;2023-02-15T21:26:55;9.85;;;6.97;;
65073;SDS011;52218;51.224;-2.328;2023-02-15T21:30:44;12.18;;;7.38;;
65073;SDS011;52218;51.224;-2.328;2023-02-15T21:34:28;16.83;;;8.00;;
65073;SDS011;52218;51.224;-2.328;2023-02-15T21:38:14;23.13;;;7.28;;
65073;SDS011;52218;51.224;-2.328;2023-02-15T21:42:01;19.42;;;6.13;;
65073;SDS011;52218;51.224;-2.328;2023-02-15T21:46:14;9.73;;;5.88;;
65073;SDS011;52218;51.224;-2.328;2023-02-15T21:50:20;8.73;;;5.97;;
65073;SDS011;52218;51.224;-2.328;2023-02-15T21:54:22;8.73;;;5.82;;
65073;SDS011;52218;51.224;-2.328;2023-02-15T21:58:04;8.20;;;5.75;;
65073;SDS011;52218;51.224;-2.328;2023-02-15T22:01:47;7.40;;;4.75;;
65073;SDS011;52218;51.224;-2.328;2023-02-15T22:05:31;6.35;;;3.83;;
65073;SDS011;52218;51.224;-2.328;2023-02-15T22:09:18;4.55;;;3.22;;
65073;SDS011;52218;51.224;-2.328;2023-02-15T22:13:02;4.35;;;3.10;;
65073;SDS011;52218;51.224;-2.328;2023-02-15T22:16:44;3.92;;;3.10;;
65073;SDS011;52218;51.224;-2.328;2023-02-15T22:20:26;4.65;;;3.05;;
65073;SDS011;52218;51.224;-2.328;2023-02-15T22:24:08;4.07;;;3.38;;
65073;SDS011;52218;51.224;-2.328;2023-02-15T22:27:51;6.05;;;3.17;;
65073;SDS011;52218;51.224;-2.328;2023-02-15T22:31:34;4.72;;;3.33;;
65073;SDS011;52218;51.224;-2.328;2023-02-15T22:35:23;8.05;;;4.57;;
65073;SDS011;52218;51.224;-2.328;2023-02-15T22:39:08;5.97;;;4.30;;
65073;SDS011;52218;51.224;-2.328;2023-02-15T22:42:50;6.18;;;3.85;;
65073;SDS011;52218;51.224;-2.328;2023-02-15T22:46:34;4.78;;;3.90;;
65073;SDS011;52218;51.224;-2.328;2023-02-15T22:54:25;5.20;;;3.58;;
65073;SDS011;52218;51.224;-2.328;2023-02-15T22:58:08;4.50;;;3.10;;
65073;SDS011;52218;51.224;-2.328;2023-02-15T23:01:57;5.28;;;3.72;;
65073;SDS011;52218;51.224;-2.328;2023-02-15T23:05:39;4.75;;;3.28;;
65073;SDS011;52218;51.224;-2.328;2023-02-15T23:09:22;6.35;;;3.78;;
65073;SDS011;52218;51.224;-2.328;2023-02-15T23:13:11;5.90;;;3.42;;
65073;SDS011;52218;51.224;-2.328;2023-02-15T23:17:07;4.88;;;3.63;;
65073;SDS011;52218;51.224;-2.328;2023-02-15T23:20:51;4.18;;;3.38;;
65073;SDS011;52218;51.224;-2.328;2023-02-15T23:24:33;5.22;;;3.25;;
65073;SDS011;52218;51.224;-2.328;2023-02-15T23:28:23;4.95;;;3.03;;
65073;SDS011;52218;51.224;-2.328;2023-02-15T23:32:12;3.80;;;3.03;;
65073;SDS011;52218;51.224;-2.328;2023-02-15T23:35:55;4.38;;;2.90;;
65073;SDS011;52218;51.224;-2.328;2023-02-15T23:39:37;5.82;;;3.10;;
65073;SDS011;52218;51.224;-2.328;2023-02-15T23:43:39;3.88;;;2.97;;
65073;SDS011;52218;51.224;-2.328;2023-02-15T23:47:26;3.38;;;2.53;;
65073;SDS011;52218;51.224;-2.328;2023-02-15T23:51:30;4.10;;;2.80;;
65073;SDS011;52218;51.224;-2.328;2023-02-15T23:55:12;4.03;;;3.15;;
65073;SDS011;52218;51.224;-2.328;2023-02-15T23:58:56;5.00;;;3.20;;
